sensor_id;sensor_type;location;lat;lon;timestamp;temperature;humidity
31133;DHT22;17779;50.942;4.026;2022-08-30T00:00:33;18.70;99.90
31133;DHT22;17779;50.942;4.026;2022-08-30T00:03:18;18.50;99.90
31133;DHT22;17779;50.942;4.026;2022-08-30T00:05:44;18.50;99.90
31133;DHT22;17779;50.942;4.026;2022-08-30T00:08:10;18.60;99.90
31133;DHT22;17779;50.942;4.026;2022-08-30T00:10:36;18.60;99.90
31133;DHT22;17779;50.942;4.026;2022-08-30T00:13:02;18.60;99.90
31133;DHT22;17779;50.942;4.026;2022-08-30T00:15:28;18.70;99.90
31133;DHT22;17779;50.942;4.026;2022-08-30T00:17:54;18.70;99.90
31133;DHT22;17779;50.942;4.026;2022-08-30T00:20:22;18.60;99.90
31133;DHT22;17779;50.942;4.026;2022-08-30T00:22:47;18.50;99.90
31133;DHT22;17779;50.942;4.026;2022-08-30T00:25:13;18.50;99.90
31133;DHT22;17779;50.942;4.026;2022-08-30T00:27:39;18.50;99.90
31133;DHT22;17779;50.942;4.026;2022-08-30T00:30:06;18.50;99.90
31133;DHT22;17779;50.942;4.026;2022-08-30T00:32:32;18.60;99.90
31133;DHT22;17779;50.942;4.026;2022-08-30T00:34:57;18.60;99.90
31133;DHT22;17779;50.942;4.026;2022-08-30T00:37:23;18.60;99.90
31133;DHT22;17779;50.942;4.026;2022-08-30T00:39:49;18.80;99.90
31133;DHT22;17779;50.942;4.026;2022-08-30T00:42:15;18.80;99.90
31133;DHT22;17779;50.942;4.026;2022-08-30T00:44:41;18.70;99.90
31133;DHT22;17779;50.942;4.026;2022-08-30T00:47:08;18.80;99.90
31133;DHT22;17779;50.942;4.026;2022-08-30T00:49:34;18.90;99.90
31133;DHT22;17779;50.942;4.026;2022-08-30T00:52:01;19.00;99.90
31133;DHT22;17779;50.942;4.026;2022-08-30T00:54:27;18.90;99.90
31133;DHT22;17779;50.942;4.026;2022-08-30T00:56:53;18.80;99.90
31133;DHT22;17779;50.942;4.026;2022-08-30T00:59:19;18.90;99.90
31133;DHT22;17779;50.942;4.026;2022-08-30T01:01:46;19.10;99.90
31133;DHT22;17779;50.942;4.026;2022-08-30T01:04:12;18.90;99.90
31133;DHT22;17779;50.942;4.026;2022-08-30T01:06:39;18.80;99.90
31133;DHT22;17779;50.942;4.026;2022-08-30T01:09:06;18.70;99.90
31133;DHT22;17779;50.942;4.026;2022-08-30T01:11:33;18.50;99.90
31133;DHT22;17779;50.942;4.026;2022-08-30T01:13:59;18.50;99.90
31133;DHT22;17779;50.942;4.026;2022-08-30T01:16:25;18.50;99.90
31133;DHT22;17779;50.942;4.026;2022-08-30T01:18:54;18.60;99.90
31133;DHT22;17779;50.942;4.026;2022-08-30T01:21:35;18.50;99.90
31133;DHT22;17779;50.942;4.026;2022-08-30T01:24:03;18.30;99.90
31133;DHT22;17779;50.942;4.026;2022-08-30T01:26:30;18.10;99.90
31133;DHT22;17779;50.942;4.026;2022-08-30T01:28:58;18.10;99.90
31133;DHT22;17779;50.942;4.026;2022-08-30T01:31:25;18.10;99.90
31133;DHT22;17779;50.942;4.026;2022-08-30T01:33:51;17.90;99.90
31133;DHT22;17779;50.942;4.026;2022-08-30T01:36:19;17.80;99.90
31133;DHT22;17779;50.942;4.026;2022-08-30T01:38:46;17.80;99.90
31133;DHT22;17779;50.942;4.026;2022-08-30T01:41:19;17.80;99.90
31133;DHT22;17779;50.942;4.026;2022-08-30T01:43:47;17.90;99.90
31133;DHT22;17779;50.942;4.026;2022-08-30T01:46:13;17.90;99.90
31133;DHT22;17779;50.942;4.026;2022-08-30T01:48:40;18.10;99.90
31133;DHT22;17779;50.942;4.026;2022-08-30T01:51:09;18.20;99.90
31133;DHT22;17779;50.942;4.026;2022-08-30T01:53:37;18.30;99.90
31133;DHT22;17779;50.942;4.026;2022-08-30T01:56:05;18.40;99.90
31133;DHT22;17779;50.942;4.026;2022-08-30T01:58:30;18.60;99.90
31133;DHT22;17779;50.942;4.026;2022-08-30T02:00:56;18.50;99.90
31133;DHT22;17779;50.942;4.026;2022-08-30T02:03:22;18.40;99.90
31133;DHT22;17779;50.942;4.026;2022-08-30T02:05:48;18.50;99.90
31133;DHT22;17779;50.942;4.026;2022-08-30T02:08:15;18.50;99.90
31133;DHT22;17779;50.942;4.026;2022-08-30T02:10:40;18.40;99.90
31133;DHT22;17779;50.942;4.026;2022-08-30T02:13:08;18.20;99.90
31133;DHT22;17779;50.942;4.026;2022-08-30T02:15:34;18.20;99.90
31133;DHT22;17779;50.942;4.026;2022-08-30T02:17:59;18.20;99.90
31133;DHT22;17779;50.942;4.026;2022-08-30T02:20:26;18.20;99.90
31133;DHT22;17779;50.942;4.026;2022-08-30T02:22:51;18.20;99.90
31133;DHT22;17779;50.942;4.026;2022-08-30T02:25:17;18.20;99.90
31133;DHT22;17779;50.942;4.026;2022-08-30T02:27:43;18.30;99.90
31133;DHT22;17779;50.942;4.026;2022-08-30T02:30:09;18.40;99.90
31133;DHT22;17779;50.942;4.026;2022-08-30T02:32:34;18.30;99.90
31133;DHT22;17779;50.942;4.026;2022-08-30T02:35:01;18.20;99.90
31133;DHT22;17779;50.942;4.026;2022-08-30T02:37:27;18.10;99.90
31133;DHT22;17779;50.942;4.026;2022-08-30T02:39:52;18.10;99.90
31133;DHT22;17779;50.942;4.026;2022-08-30T02:42:18;18.00;99.90
31133;DHT22;17779;50.942;4.026;2022-08-30T02:44:43;17.80;99.90
31133;DHT22;17779;50.942;4.026;2022-08-30T02:47:09;17.70;99.90
31133;DHT22;17779;50.942;4.026;2022-08-30T02:49:35;17.80;99.90
31133;DHT22;17779;50.942;4.026;2022-08-30T02:52:01;18.00;99.90
31133;DHT22;17779;50.942;4.026;2022-08-30T02:54:27;18.00;99.90
31133;DHT22;17779;50.942;4.026;2022-08-30T02:56:55;18.10;99.90
31133;DHT22;17779;50.942;4.026;2022-08-30T02:59:22;18.10;99.90
31133;DHT22;17779;50.942;4.026;2022-08-30T03:01:48;18.20;99.90
31133;DHT22;17779;50.942;4.026;2022-08-30T03:04:13;18.20;99.90
31133;DHT22;17779;50.942;4.026;2022-08-30T03:06:40;18.30;99.90
31133;DHT22;17779;50.942;4.026;2022-08-30T03:11:34;18.40;99.90
31133;DHT22;17779;50.942;4.026;2022-08-30T03:14:01;18.40;99.90
31133;DHT22;17779;50.942;4.026;2022-08-30T03:16:26;18.30;99.90
31133;DHT22;17779;50.942;4.026;2022-08-30T03:18:52;18.40;99.90
31133;DHT22;17779;50.942;4.026;2022-08-30T03:21:17;18.50;99.90
31133;DHT22;17779;50.942;4.026;2022-08-30T03:23:43;18.50;99.90
31133;DHT22;17779;50.942;4.026;2022-08-30T03:26:09;18.50;99.90
31133;DHT22;17779;50.942;4.026;2022-08-30T03:28:39;18.50;99.90
31133;DHT22;17779;50.942;4.026;2022-08-30T03:31:06;18.50;99.90
31133;DHT22;17779;50.942;4.026;2022-08-30T03:33:35;18.50;99.90
31133;DHT22;17779;50.942;4.026;2022-08-30T03:36:00;18.40;99.90
31133;DHT22;17779;50.942;4.026;2022-08-30T03:38:26;18.30;99.90
31133;DHT22;17779;50.942;4.026;2022-08-30T03:40:53;18.30;99.90
31133;DHT22;17779;50.942;4.026;2022-08-30T03:43:18;18.20;99.90
31133;DHT22;17779;50.942;4.026;2022-08-30T03:45:44;18.20;99.90
31133;DHT22;17779;50.942;4.026;2022-08-30T03:48:09;18.30;99.90
31133;DHT22;17779;50.942;4.026;2022-08-30T03:50:35;18.30;99.90
31133;DHT22;17779;50.942;4.026;2022-08-30T03:53:02;18.30;99.90
31133;DHT22;17779;50.942;4.026;2022-08-30T03:55:28;18.20;99.90
31133;DHT22;17779;50.942;4.026;2022-08-30T03:57:54;18.20;99.90
31133;DHT22;17779;50.942;4.026;2022-08-30T04:00:20;18.10;99.90
31133;DHT22;17779;50.942;4.026;2022-08-30T04:02:45;18.00;99.90
31133;DHT22;17779;50.942;4.026;2022-08-30T04:05:11;18.00;99.90
31133;DHT22;17779;50.942;4.026;2022-08-30T04:07:37;18.00;99.90
31133;DHT22;17779;50.942;4.026;2022-08-30T04:10:04;18.00;99.90
31133;DHT22;17779;50.942;4.026;2022-08-30T04:12:30;18.10;99.90
31133;DHT22;17779;50.942;4.026;2022-08-30T04:14:56;18.00;99.90
31133;DHT22;17779;50.942;4.026;2022-08-30T04:17:22;18.10;99.90
31133;DHT22;17779;50.942;4.026;2022-08-30T04:19:48;18.20;99.90
31133;DHT22;17779;50.942;4.026;2022-08-30T04:22:13;18.20;99.90
31133;DHT22;17779;50.942;4.026;2022-08-30T04:24:39;18.10;99.90
31133;DHT22;17779;50.942;4.026;2022-08-30T04:27:06;18.10;99.90
31133;DHT22;17779;50.942;4.026;2022-08-30T04:29:32;18.20;99.90
31133;DHT22;17779;50.942;4.026;2022-08-30T04:31:58;18.30;99.90
31133;DHT22;17779;50.942;4.026;2022-08-30T04:34:24;18.20;99.90
31133;DHT22;17779;50.942;4.026;2022-08-30T04:36:49;18.00;99.90
31133;DHT22;17779;50.942;4.026;2022-08-30T04:39:16;17.90;99.90
31133;DHT22;17779;50.942;4.026;2022-08-30T04:41:41;17.80;99.90
31133;DHT22;17779;50.942;4.026;2022-08-30T04:44:07;17.90;99.90
31133;DHT22;17779;50.942;4.026;2022-08-30T04:46:33;18.00;99.90
31133;DHT22;17779;50.942;4.026;2022-08-30T04:49:00;18.10;99.90
31133;DHT22;17779;50.942;4.026;2022-08-30T04:51:26;18.10;99.90
31133;DHT22;17779;50.942;4.026;2022-08-30T04:53:51;18.00;99.90
31133;DHT22;17779;50.942;4.026;2022-08-30T04:56:18;18.10;99.90
31133;DHT22;17779;50.942;4.026;2022-08-30T04:58:46;18.10;99.90
31133;DHT22;17779;50.942;4.026;2022-08-30T05:01:14;17.90;99.90
31133;DHT22;17779;50.942;4.026;2022-08-30T05:03:40;17.80;99.90
31133;DHT22;17779;50.942;4.026;2022-08-30T05:06:09;17.80;99.90
31133;DHT22;17779;50.942;4.026;2022-08-30T05:08:35;17.60;99.90
31133;DHT22;17779;50.942;4.026;2022-08-30T05:11:02;17.50;99.90
31133;DHT22;17779;50.942;4.026;2022-08-30T05:13:27;17.60;99.90
31133;DHT22;17779;50.942;4.026;2022-08-30T05:15:53;17.80;99.90
31133;DHT22;17779;50.942;4.026;2022-08-30T05:18:19;18.00;99.90
31133;DHT22;17779;50.942;4.026;2022-08-30T05:20:45;18.10;99.90
31133;DHT22;17779;50.942;4.026;2022-08-30T05:23:11;18.10;99.90
31133;DHT22;17779;50.942;4.026;2022-08-30T05:25:37;18.10;99.90
31133;DHT22;17779;50.942;4.026;2022-08-30T05:28:04;18.20;99.90
31133;DHT22;17779;50.942;4.026;2022-08-30T05:30:30;18.20;99.90
31133;DHT22;17779;50.942;4.026;2022-08-30T05:32:56;18.20;99.90
31133;DHT22;17779;50.942;4.026;2022-08-30T05:35:22;18.00;99.90
31133;DHT22;17779;50.942;4.026;2022-08-30T05:37:48;17.90;99.90
31133;DHT22;17779;50.942;4.026;2022-08-30T05:40:13;18.00;99.90
31133;DHT22;17779;50.942;4.026;2022-08-30T05:42:43;18.20;99.90
31133;DHT22;17779;50.942;4.026;2022-08-30T05:45:09;18.30;99.90
31133;DHT22;17779;50.942;4.026;2022-08-30T05:47:35;18.40;99.90
31133;DHT22;17779;50.942;4.026;2022-08-30T05:50:01;18.50;99.90
31133;DHT22;17779;50.942;4.026;2022-08-30T05:52:27;18.40;99.90
31133;DHT22;17779;50.942;4.026;2022-08-30T05:54:55;18.40;99.90
31133;DHT22;17779;50.942;4.026;2022-08-30T05:57:23;18.40;99.90
31133;DHT22;17779;50.942;4.026;2022-08-30T05:59:49;18.60;99.90
31133;DHT22;17779;50.942;4.026;2022-08-30T06:02:15;18.60;99.90
31133;DHT22;17779;50.942;4.026;2022-08-30T06:04:41;18.80;99.90
31133;DHT22;17779;50.942;4.026;2022-08-30T06:07:08;18.80;99.90
31133;DHT22;17779;50.942;4.026;2022-08-30T06:09:35;18.80;99.90
31133;DHT22;17779;50.942;4.026;2022-08-30T06:12:01;18.80;99.90
31133;DHT22;17779;50.942;4.026;2022-08-30T06:14:27;18.60;99.90
31133;DHT22;17779;50.942;4.026;2022-08-30T06:16:53;18.60;99.90
31133;DHT22;17779;50.942;4.026;2022-08-30T06:19:18;18.80;99.90
31133;DHT22;17779;50.942;4.026;2022-08-30T06:21:47;18.90;99.90
31133;DHT22;17779;50.942;4.026;2022-08-30T06:24:13;18.80;99.90
31133;DHT22;17779;50.942;4.026;2022-08-30T06:26:40;18.80;99.90
31133;DHT22;17779;50.942;4.026;2022-08-30T06:29:06;19.00;99.90
31133;DHT22;17779;50.942;4.026;2022-08-30T06:31:34;19.00;99.90
31133;DHT22;17779;50.942;4.026;2022-08-30T06:34:02;19.20;99.90
31133;DHT22;17779;50.942;4.026;2022-08-30T06:36:29;19.40;99.90
31133;DHT22;17779;50.942;4.026;2022-08-30T06:38:57;19.40;99.90
31133;DHT22;17779;50.942;4.026;2022-08-30T06:41:24;19.50;99.90
31133;DHT22;17779;50.942;4.026;2022-08-30T06:43:51;19.20;99.90
31133;DHT22;17779;50.942;4.026;2022-08-30T06:46:18;19.20;99.90
31133;DHT22;17779;50.942;4.026;2022-08-30T06:48:44;19.10;99.90
31133;DHT22;17779;50.942;4.026;2022-08-30T06:51:09;19.00;99.90
31133;DHT22;17779;50.942;4.026;2022-08-30T06:53:36;19.10;99.90
31133;DHT22;17779;50.942;4.026;2022-08-30T06:56:06;19.10;99.90
31133;DHT22;17779;50.942;4.026;2022-08-30T06:58:33;19.00;99.90
31133;DHT22;17779;50.942;4.026;2022-08-30T07:01:02;19.00;99.90
31133;DHT22;17779;50.942;4.026;2022-08-30T07:03:27;19.10;99.90
31133;DHT22;17779;50.942;4.026;2022-08-30T07:05:54;19.30;99.90
31133;DHT22;17779;50.942;4.026;2022-08-30T07:08:20;19.40;99.90
31133;DHT22;17779;50.942;4.026;2022-08-30T07:10:47;19.50;99.90
31133;DHT22;17779;50.942;4.026;2022-08-30T07:13:14;19.60;99.90
31133;DHT22;17779;50.942;4.026;2022-08-30T07:15:40;19.30;99.90
31133;DHT22;17779;50.942;4.026;2022-08-30T07:18:07;19.30;99.90
31133;DHT22;17779;50.942;4.026;2022-08-30T07:20:52;19.60;99.90
31133;DHT22;17779;50.942;4.026;2022-08-30T07:23:17;19.70;99.90
31133;DHT22;17779;50.942;4.026;2022-08-30T07:25:43;19.80;99.90
31133;DHT22;17779;50.942;4.026;2022-08-30T07:28:09;19.80;99.90
31133;DHT22;17779;50.942;4.026;2022-08-30T07:30:36;19.90;99.90
31133;DHT22;17779;50.942;4.026;2022-08-30T07:33:02;20.20;99.90
31133;DHT22;17779;50.942;4.026;2022-08-30T07:35:28;20.50;99.90
31133;DHT22;17779;50.942;4.026;2022-08-30T07:37:57;20.50;99.90
31133;DHT22;17779;50.942;4.026;2022-08-30T07:40:23;21.00;99.90
31133;DHT22;17779;50.942;4.026;2022-08-30T07:42:48;21.50;99.90
31133;DHT22;17779;50.942;4.026;2022-08-30T07:45:14;21.40;99.90
31133;DHT22;17779;50.942;4.026;2022-08-30T07:47:40;21.70;99.90
31133;DHT22;17779;50.942;4.026;2022-08-30T07:50:05;22.50;99.90
31133;DHT22;17779;50.942;4.026;2022-08-30T07:52:31;22.50;99.90
31133;DHT22;17779;50.942;4.026;2022-08-30T07:54:58;23.00;99.90
31133;DHT22;17779;50.942;4.026;2022-08-30T07:57:24;23.40;99.90
31133;DHT22;17779;50.942;4.026;2022-08-30T07:59:51;23.80;99.90
31133;DHT22;17779;50.942;4.026;2022-08-30T08:02:17;23.30;99.90
31133;DHT22;17779;50.942;4.026;2022-08-30T08:04:43;23.60;99.90
31133;DHT22;17779;50.942;4.026;2022-08-30T08:07:09;23.50;99.90
31133;DHT22;17779;50.942;4.026;2022-08-30T08:09:35;23.70;99.90
31133;DHT22;17779;50.942;4.026;2022-08-30T08:12:02;23.90;99.90
31133;DHT22;17779;50.942;4.026;2022-08-30T08:14:29;24.30;99.90
31133;DHT22;17779;50.942;4.026;2022-08-30T08:16:56;24.10;99.90
31133;DHT22;17779;50.942;4.026;2022-08-30T08:19:22;23.90;99.90
31133;DHT22;17779;50.942;4.026;2022-08-30T08:21:47;24.70;99.90
31133;DHT22;17779;50.942;4.026;2022-08-30T08:24:14;25.00;99.90
31133;DHT22;17779;50.942;4.026;2022-08-30T08:26:41;24.90;99.90
31133;DHT22;17779;50.942;4.026;2022-08-30T08:29:07;25.30;99.90
31133;DHT22;17779;50.942;4.026;2022-08-30T08:31:34;25.50;99.90
31133;DHT22;17779;50.942;4.026;2022-08-30T08:34:00;25.90;99.90
31133;DHT22;17779;50.942;4.026;2022-08-30T08:36:27;26.30;99.90
31133;DHT22;17779;50.942;4.026;2022-08-30T08:38:54;26.70;99.90
31133;DHT22;17779;50.942;4.026;2022-08-30T08:43:52;28.10;99.90
31133;DHT22;17779;50.942;4.026;2022-08-30T08:48:45;28.40;99.90
31133;DHT22;17779;50.942;4.026;2022-08-30T08:51:12;28.50;99.90
31133;DHT22;17779;50.942;4.026;2022-08-30T08:56:42;28.20;99.90
31133;DHT22;17779;50.942;4.026;2022-08-30T08:59:08;28.50;99.90
31133;DHT22;17779;50.942;4.026;2022-08-30T09:01:34;28.80;99.90
31133;DHT22;17779;50.942;4.026;2022-08-30T09:04:06;29.40;99.90
31133;DHT22;17779;50.942;4.026;2022-08-30T09:06:37;30.00;99.90
31133;DHT22;17779;50.942;4.026;2022-08-30T09:09:05;30.50;99.90
31133;DHT22;17779;50.942;4.026;2022-08-30T09:11:32;28.60;99.90
31133;DHT22;17779;50.942;4.026;2022-08-30T09:13:59;29.10;99.90
31133;DHT22;17779;50.942;4.026;2022-08-30T09:19:11;29.60;99.90
31133;DHT22;17779;50.942;4.026;2022-08-30T09:21:36;29.50;99.90
31133;DHT22;17779;50.942;4.026;2022-08-30T09:24:03;28.90;99.90
31133;DHT22;17779;50.942;4.026;2022-08-30T09:26:31;28.60;99.90
31133;DHT22;17779;50.942;4.026;2022-08-30T09:28:59;29.90;99.90
31133;DHT22;17779;50.942;4.026;2022-08-30T09:31:29;29.90;99.90
31133;DHT22;17779;50.942;4.026;2022-08-30T09:34:18;29.30;99.90
31133;DHT22;17779;50.942;4.026;2022-08-30T09:36:47;29.30;99.90
31133;DHT22;17779;50.942;4.026;2022-08-30T09:41:50;28.00;99.90
31133;DHT22;17779;50.942;4.026;2022-08-30T09:44:20;28.00;99.90
31133;DHT22;17779;50.942;4.026;2022-08-30T09:46:51;28.90;99.90
31133;DHT22;17779;50.942;4.026;2022-08-30T09:49:27;30.60;99.90
31133;DHT22;17779;50.942;4.026;2022-08-30T09:54:33;29.00;99.90
31133;DHT22;17779;50.942;4.026;2022-08-30T09:59:45;30.40;99.70
31133;DHT22;17779;50.942;4.026;2022-08-30T10:07:31;29.00;99.90
31133;DHT22;17779;50.942;4.026;2022-08-30T10:10:04;29.20;99.90
31133;DHT22;17779;50.942;4.026;2022-08-30T10:12:58;28.40;99.90
31133;DHT22;17779;50.942;4.026;2022-08-30T10:15:24;28.50;99.90
31133;DHT22;17779;50.942;4.026;2022-08-30T10:20:35;28.70;99.90
31133;DHT22;17779;50.942;4.026;2022-08-30T10:28:29;30.00;98.40
31133;DHT22;17779;50.942;4.026;2022-08-30T10:31:04;29.90;98.10
31133;DHT22;17779;50.942;4.026;2022-08-30T10:36:02;28.70;99.20
31133;DHT22;17779;50.942;4.026;2022-08-30T10:38:36;28.60;99.90
31133;DHT22;17779;50.942;4.026;2022-08-30T10:41:11;28.80;99.60
31133;DHT22;17779;50.942;4.026;2022-08-30T10:49:03;29.60;98.60
31133;DHT22;17779;50.942;4.026;2022-08-30T10:51:36;28.30;99.30
31133;DHT22;17779;50.942;4.026;2022-08-30T10:54:09;28.10;99.90
31133;DHT22;17779;50.942;4.026;2022-08-30T10:56:36;27.10;99.90
31133;DHT22;17779;50.942;4.026;2022-08-30T10:59:03;27.30;99.90
31133;DHT22;17779;50.942;4.026;2022-08-30T11:04:21;30.20;98.90
31133;DHT22;17779;50.942;4.026;2022-08-30T11:09:41;29.10;98.90
31133;DHT22;17779;50.942;4.026;2022-08-30T11:14:48;30.90;96.30
31133;DHT22;17779;50.942;4.026;2022-08-30T11:17:25;29.30;96.70
31133;DHT22;17779;50.942;4.026;2022-08-30T11:19:51;29.20;97.80
31133;DHT22;17779;50.942;4.026;2022-08-30T11:22:23;30.00;96.40
31133;DHT22;17779;50.942;4.026;2022-08-30T11:25:00;30.10;96.50
31133;DHT22;17779;50.942;4.026;2022-08-30T11:27:39;28.40;97.90
31133;DHT22;17779;50.942;4.026;2022-08-30T11:38:00;32.70;94.70
31133;DHT22;17779;50.942;4.026;2022-08-30T11:40:43;31.50;93.80
31133;DHT22;17779;50.942;4.026;2022-08-30T11:45:50;32.00;93.60
31133;DHT22;17779;50.942;4.026;2022-08-30T11:48:39;32.60;92.90
31133;DHT22;17779;50.942;4.026;2022-08-30T11:51:09;33.40;91.50
31133;DHT22;17779;50.942;4.026;2022-08-30T11:59:08;32.30;90.30
31133;DHT22;17779;50.942;4.026;2022-08-30T12:01:42;32.80;90.10
31133;DHT22;17779;50.942;4.026;2022-08-30T12:06:47;32.40;89.70
31133;DHT22;17779;50.942;4.026;2022-08-30T12:12:03;32.50;89.50
31133;DHT22;17779;50.942;4.026;2022-08-30T12:16:57;33.60;88.00
31133;DHT22;17779;50.942;4.026;2022-08-30T12:19:43;34.40;86.60
31133;DHT22;17779;50.942;4.026;2022-08-30T12:22:15;32.50;87.70
31133;DHT22;17779;50.942;4.026;2022-08-30T12:24:42;31.60;90.30
31133;DHT22;17779;50.942;4.026;2022-08-30T12:27:28;30.60;90.90
31133;DHT22;17779;50.942;4.026;2022-08-30T12:29:58;29.90;92.30
31133;DHT22;17779;50.942;4.026;2022-08-30T12:32:26;29.00;94.30
31133;DHT22;17779;50.942;4.026;2022-08-30T12:34:53;29.40;93.80
31133;DHT22;17779;50.942;4.026;2022-08-30T12:37:24;29.90;93.60
31133;DHT22;17779;50.942;4.026;2022-08-30T12:42:50;31.80;91.70
31133;DHT22;17779;50.942;4.026;2022-08-30T12:45:17;32.40;90.40
31133;DHT22;17779;50.942;4.026;2022-08-30T12:47:50;32.30;90.40
31133;DHT22;17779;50.942;4.026;2022-08-30T12:50:18;32.80;90.00
31133;DHT22;17779;50.942;4.026;2022-08-30T12:52:58;33.90;88.70
31133;DHT22;17779;50.942;4.026;2022-08-30T12:55:32;33.60;86.30
31133;DHT22;17779;50.942;4.026;2022-08-30T12:58:06;34.40;86.30
31133;DHT22;17779;50.942;4.026;2022-08-30T13:03:00;33.80;86.80
31133;DHT22;17779;50.942;4.026;2022-08-30T13:05:28;34.50;85.50
31133;DHT22;17779;50.942;4.026;2022-08-30T13:10:46;34.20;84.40
31133;DHT22;17779;50.942;4.026;2022-08-30T13:13:12;32.90;85.80
31133;DHT22;17779;50.942;4.026;2022-08-30T13:15:50;32.20;89.70
31133;DHT22;17779;50.942;4.026;2022-08-30T13:18:23;30.40;91.50
31133;DHT22;17779;50.942;4.026;2022-08-30T13:21:07;29.40;92.80
31133;DHT22;17779;50.942;4.026;2022-08-30T13:23:33;28.80;94.20
31133;DHT22;17779;50.942;4.026;2022-08-30T13:25:59;28.70;95.00
31133;DHT22;17779;50.942;4.026;2022-08-30T13:28:24;28.60;94.80
31133;DHT22;17779;50.942;4.026;2022-08-30T13:30:51;28.30;95.20
31133;DHT22;17779;50.942;4.026;2022-08-30T13:33:16;28.20;95.80
31133;DHT22;17779;50.942;4.026;2022-08-30T13:35:43;28.40;95.90
31133;DHT22;17779;50.942;4.026;2022-08-30T13:38:09;28.50;95.60
31133;DHT22;17779;50.942;4.026;2022-08-30T13:40:34;28.30;95.90
31133;DHT22;17779;50.942;4.026;2022-08-30T13:43:01;28.20;96.20
31133;DHT22;17779;50.942;4.026;2022-08-30T13:45:27;28.20;96.20
31133;DHT22;17779;50.942;4.026;2022-08-30T13:47:52;28.50;96.10
31133;DHT22;17779;50.942;4.026;2022-08-30T13:50:18;28.70;95.70
31133;DHT22;17779;50.942;4.026;2022-08-30T13:52:44;28.30;95.50
31133;DHT22;17779;50.942;4.026;2022-08-30T13:55:10;28.30;96.30
31133;DHT22;17779;50.942;4.026;2022-08-30T13:57:36;28.40;95.70
31133;DHT22;17779;50.942;4.026;2022-08-30T14:00:03;28.40;95.80
31133;DHT22;17779;50.942;4.026;2022-08-30T14:02:29;28.50;95.90
31133;DHT22;17779;50.942;4.026;2022-08-30T14:04:54;28.50;96.00
31133;DHT22;17779;50.942;4.026;2022-08-30T14:07:20;28.70;95.90
31133;DHT22;17779;50.942;4.026;2022-08-30T14:09:45;28.70;95.60
31133;DHT22;17779;50.942;4.026;2022-08-30T14:12:11;28.20;96.20
31133;DHT22;17779;50.942;4.026;2022-08-30T14:14:37;28.20;96.40
31133;DHT22;17779;50.942;4.026;2022-08-30T14:17:02;28.00;96.40
31133;DHT22;17779;50.942;4.026;2022-08-30T14:19:28;27.80;97.00
31133;DHT22;17779;50.942;4.026;2022-08-30T14:21:53;27.60;97.50
31133;DHT22;17779;50.942;4.026;2022-08-30T14:24:19;27.60;97.80
31133;DHT22;17779;50.942;4.026;2022-08-30T14:26:46;27.40;97.80
31133;DHT22;17779;50.942;4.026;2022-08-30T14:29:15;27.40;98.00
31133;DHT22;17779;50.942;4.026;2022-08-30T14:31:41;27.50;97.90
31133;DHT22;17779;50.942;4.026;2022-08-30T14:34:08;27.50;97.90
31133;DHT22;17779;50.942;4.026;2022-08-30T14:36:35;27.60;97.80
31133;DHT22;17779;50.942;4.026;2022-08-30T14:39:06;27.40;97.90
31133;DHT22;17779;50.942;4.026;2022-08-30T14:41:32;27.10;98.30
31133;DHT22;17779;50.942;4.026;2022-08-30T14:43:57;26.90;98.90
31133;DHT22;17779;50.942;4.026;2022-08-30T14:46:23;27.00;99.20
31133;DHT22;17779;50.942;4.026;2022-08-30T14:48:51;27.00;99.20
31133;DHT22;17779;50.942;4.026;2022-08-30T14:51:18;26.80;99.30
31133;DHT22;17779;50.942;4.026;2022-08-30T14:53:44;26.80;99.40
31133;DHT22;17779;50.942;4.026;2022-08-30T14:56:10;26.90;99.40
31133;DHT22;17779;50.942;4.026;2022-08-30T14:58:38;26.90;99.40
31133;DHT22;17779;50.942;4.026;2022-08-30T15:01:07;26.80;99.40
31133;DHT22;17779;50.942;4.026;2022-08-30T15:03:33;26.60;99.80
31133;DHT22;17779;50.942;4.026;2022-08-30T15:05:59;26.70;99.80
31133;DHT22;17779;50.942;4.026;2022-08-30T15:08:25;26.90;99.90
31133;DHT22;17779;50.942;4.026;2022-08-30T15:10:51;27.20;99.40
31133;DHT22;17779;50.942;4.026;2022-08-30T15:13:17;27.20;99.30
31133;DHT22;17779;50.942;4.026;2022-08-30T15:15:42;27.20;99.20
31133;DHT22;17779;50.942;4.026;2022-08-30T15:18:08;27.10;99.20
31133;DHT22;17779;50.942;4.026;2022-08-30T15:20:35;26.80;99.50
31133;DHT22;17779;50.942;4.026;2022-08-30T15:23:02;26.80;99.90
31133;DHT22;17779;50.942;4.026;2022-08-30T15:25:28;26.90;99.70
31133;DHT22;17779;50.942;4.026;2022-08-30T15:27:54;26.80;99.90
31133;DHT22;17779;50.942;4.026;2022-08-30T15:30:19;26.80;99.90
31133;DHT22;17779;50.942;4.026;2022-08-30T15:32:45;26.70;99.90
31133;DHT22;17779;50.942;4.026;2022-08-30T15:35:10;26.60;99.80
31133;DHT22;17779;50.942;4.026;2022-08-30T15:37:36;26.50;99.90
31133;DHT22;17779;50.942;4.026;2022-08-30T15:40:03;26.40;99.90
31133;DHT22;17779;50.942;4.026;2022-08-30T15:42:29;26.50;99.90
31133;DHT22;17779;50.942;4.026;2022-08-30T15:44:55;26.80;99.90
31133;DHT22;17779;50.942;4.026;2022-08-30T15:47:21;26.80;99.70
31133;DHT22;17779;50.942;4.026;2022-08-30T15:49:53;26.80;99.80
31133;DHT22;17779;50.942;4.026;2022-08-30T15:52:20;26.60;99.80
31133;DHT22;17779;50.942;4.026;2022-08-30T15:54:46;26.50;99.90
31133;DHT22;17779;50.942;4.026;2022-08-30T15:57:11;26.50;99.90
31133;DHT22;17779;50.942;4.026;2022-08-30T15:59:37;26.50;99.90
31133;DHT22;17779;50.942;4.026;2022-08-30T16:02:02;26.60;99.80
31133;DHT22;17779;50.942;4.026;2022-08-30T16:04:28;26.60;99.50
31133;DHT22;17779;50.942;4.026;2022-08-30T16:06:53;26.30;99.70
31133;DHT22;17779;50.942;4.026;2022-08-30T16:09:20;26.30;99.90
31133;DHT22;17779;50.942;4.026;2022-08-30T16:11:46;26.40;99.90
31133;DHT22;17779;50.942;4.026;2022-08-30T16:14:12;26.40;99.90
31133;DHT22;17779;50.942;4.026;2022-08-30T16:16:37;26.40;99.80
31133;DHT22;17779;50.942;4.026;2022-08-30T16:19:03;26.30;99.60
31133;DHT22;17779;50.942;4.026;2022-08-30T16:21:31;26.10;99.90
31133;DHT22;17779;50.942;4.026;2022-08-30T16:23:58;26.00;99.90
31133;DHT22;17779;50.942;4.026;2022-08-30T16:26:25;26.00;99.90
31133;DHT22;17779;50.942;4.026;2022-08-30T16:28:51;26.10;99.80
31133;DHT22;17779;50.942;4.026;2022-08-30T16:31:17;26.10;99.80
31133;DHT22;17779;50.942;4.026;2022-08-30T16:33:43;26.10;99.70
31133;DHT22;17779;50.942;4.026;2022-08-30T16:36:08;26.00;99.80
31133;DHT22;17779;50.942;4.026;2022-08-30T16:38:38;25.90;99.90
31133;DHT22;17779;50.942;4.026;2022-08-30T16:41:05;25.80;99.90
31133;DHT22;17779;50.942;4.026;2022-08-30T16:43:32;25.80;99.90
31133;DHT22;17779;50.942;4.026;2022-08-30T16:45:58;25.60;99.90
31133;DHT22;17779;50.942;4.026;2022-08-30T16:48:24;25.60;99.90
31133;DHT22;17779;50.942;4.026;2022-08-30T16:50:50;25.80;99.90
31133;DHT22;17779;50.942;4.026;2022-08-30T16:53:15;25.90;99.90